Time;durP1;ratioP1;P1;durP2;ratioP2;P2;SDS_P1;SDS_P2;PMS_P1;PMS_P2;Temp;Humidity;BMP_temperature;BMP_pressure;BME280_temperature;BME280_humidity;BME280_pressure;Samples;Min_cycle;Max_cycle;Signal;HPM_P1;HPM_P2
2022/08/03 00:01:01;;;;;;;9.00;3.50;;;;;;;18.87;63.61;99155.98;1759104;81;21014;-80
2022/08/03 00:03:28;;;;;;;8.78;3.70;;;;;;;18.85;63.12;99160.50;1741096;81;21019;-79
2022/08/03 00:05:55;;;;;;;9.18;3.58;;;;;;;18.83;64.09;99154.95;1739980;81;21035;-79
2022/08/03 00:08:21;;;;;;;6.42;3.58;;;;;;;18.82;63.51;99151.48;1730187;81;21032;-79
2022/08/03 00:10:48;;;;;;;10.40;4.45;;;;;;;18.80;62.39;99154.67;1754055;81;20980;-81
2022/08/03 00:13:15;;;;;;;9.93;3.60;;;;;;;18.77;63.42;99153.48;1733878;81;21039;-79
2022/08/03 00:15:42;;;;;;;7.10;3.50;;;;;;;18.71;63.71;99152.52;1747776;81;21484;-79
2022/08/03 00:18:09;;;;;;;7.30;3.20;;;;;;;18.68;64.12;99155.31;1759331;81;20994;-79
2022/08/03 00:20:36;;;;;;;8.63;3.27;;;;;;;18.66;63.06;99156.75;1758875;81;21047;-78
2022/08/03 00:23:04;;;;;;;5.15;3.08;;;;;;;18.62;64.06;99156.55;1757521;81;21570;-79
2022/08/03 00:25:30;;;;;;;4.30;2.80;;;;;;;18.60;62.95;99161.05;1739363;81;21066;-80
2022/08/03 00:27:57;;;;;;;6.42;3.10;;;;;;;18.56;64.50;99156.03;1755985;81;21078;-80
2022/08/03 00:30:24;;;;;;;10.88;2.90;;;;;;;18.52;63.79;99151.39;1737635;81;20974;-79
2022/08/03 00:32:50;;;;;;;5.45;2.87;;;;;;;18.51;63.78;99155.45;1760202;81;21018;-80
2022/08/03 00:35:17;;;;;;;7.37;2.90;;;;;;;18.47;63.83;99156.09;1754401;81;21013;-79
2022/08/03 00:37:43;;;;;;;7.62;2.70;;;;;;;18.45;64.32;99164.55;1752939;82;20940;-80
2022/08/03 00:40:13;;;;;;;5.28;2.80;;;;;;;18.45;64.15;99169.34;1737988;82;21654;-80
2022/08/03 00:43:00;;;;;;;6.47;2.70;;;;;;;18.43;64.50;99163.78;1742879;82;21029;-78
2022/08/03 00:45:32;;;;;;;6.10;2.90;;;;;;;18.40;66.04;99160.86;1733010;81;21033;-79
2022/08/03 00:48:00;;;;;;;6.20;3.08;;;;;;;18.38;65.26;99161.42;1751529;82;21023;-80
2022/08/03 00:50:30;;;;;;;5.65;2.98;;;;;;;18.37;65.93;99164.13;1756856;82;21080;-80
2022/08/03 00:52:58;;;;;;;5.05;2.90;;;;;;;18.39;67.54;99172.79;1756614;81;21002;-80
2022/08/03 00:55:25;;;;;;;6.35;2.87;;;;;;;18.40;66.74;99167.89;1746799;81;21028;-82
2022/08/03 00:57:53;;;;;;;5.70;2.92;;;;;;;18.40;65.59;99170.52;1716439;83;21037;-79
2022/08/03 01:00:23;;;;;;;7.22;3.05;;;;;;;18.37;66.99;99175.98;1743184;82;21502;-84
2022/08/03 01:02:51;;;;;;;7.03;2.90;;;;;;;18.31;65.67;99167.95;1716032;83;22100;-80
2022/08/03 01:05:19;;;;;;;6.83;3.02;;;;;;;18.32;66.30;99161.73;1747006;82;21118;-80
2022/08/03 01:08:06;;;;;;;7.83;3.42;;;;;;;18.32;66.47;99168.79;1742028;82;21000;-80
2022/08/03 01:11:00;;;;;;;6.08;3.17;;;;;;;18.25;66.34;99168.30;1726935;83;21029;-80
2022/08/03 01:13:44;;;;;;;6.17;3.47;;;;;;;18.20;67.17;99162.42;1725858;82;21056;-80
2022/08/03 01:16:25;;;;;;;8.63;3.52;;;;;;;18.17;66.30;99166.08;1723243;82;21048;-79
2022/08/03 01:19:03;;;;;;;7.22;3.30;;;;;;;18.15;67.79;99164.48;1731524;82;21036;-79
2022/08/03 01:21:40;;;;;;;7.10;3.10;;;;;;;18.08;65.86;99160.88;1727591;82;21032;-79
2022/08/03 01:24:38;;;;;;;7.65;3.33;;;;;;;17.98;66.49;99163.59;1743625;82;21043;-80
2022/08/03 01:27:21;;;;;;;6.87;3.40;;;;;;;17.94;68.24;99155.97;1761038;81;21104;-80
2022/08/03 01:29:53;;;;;;;8.70;3.17;;;;;;;17.87;66.36;99158.09;1745058;82;21000;-79
2022/08/03 01:32:38;;;;;;;5.47;3.37;;;;;;;17.82;67.16;99162.23;1753381;81;21039;-80
2022/08/03 01:35:09;;;;;;;9.25;3.75;;;;;;;17.80;67.01;99156.67;1761029;80;21037;-80
2022/08/03 01:37:58;;;;;;;7.60;3.87;;;;;;;17.78;67.26;99163.80;1773009;80;21525;-80
2022/08/03 01:40:27;;;;;;;6.60;3.60;;;;;;;17.68;65.87;99160.34;1756999;80;21031;-80
2022/08/03 01:42:57;;;;;;;8.73;3.67;;;;;;;17.66;67.10;99165.30;1768492;80;21048;-79
2022/08/03 01:45:24;;;;;;;7.28;3.30;;;;;;;17.64;66.65;99166.69;1761973;80;21460;-81
2022/08/03 01:47:53;;;;;;;5.42;3.37;;;;;;;17.61;66.31;99161.61;1751120;80;21018;-81
2022/08/03 01:50:27;;;;;;;9.43;3.45;;;;;;;17.60;65.47;99165.16;1733529;82;21017;-79
2022/08/03 01:52:56;;;;;;;7.62;3.77;;;;;;;17.54;66.50;99168.11;1752507;82;21020;-80
2022/08/03 01:55:30;;;;;;;7.05;3.47;;;;;;;17.52;68.20;99173.91;1749776;82;20995;-79
2022/08/03 01:57:56;;;;;;;5.50;3.47;;;;;;;17.51;68.55;99170.92;1770381;80;21024;-80
2022/08/03 02:00:24;;;;;;;10.28;3.45;;;;;;;17.49;68.45;99163.58;1777329;80;21034;-80
2022/08/03 02:02:54;;;;;;;6.12;3.37;;;;;;;17.50;67.87;99157.38;1740624;82;21064;-80
2022/08/03 02:05:22;;;;;;;9.00;4.25;;;;;;;17.48;67.07;99156.61;1745486;82;21460;-79
2022/08/03 02:07:50;;;;;;;16.87;7.70;;;;;;;17.41;67.59;99157.41;1743072;82;21015;-80
2022/08/03 02:10:19;;;;;;;15.32;7.22;;;;;;;17.38;67.04;99161.97;1732666;82;21055;-81
2022/08/03 02:12:49;;;;;;;18.57;8.80;;;;;;;17.35;67.62;99159.48;1777104;80;21557;-80
2022/08/03 02:15:18;;;;;;;13.60;7.35;;;;;;;17.38;69.51;99156.70;1724288;80;21041;-79
2022/08/03 02:17:47;;;;;;;14.75;7.08;;;;;;;17.38;67.93;99156.70;1752151;82;21074;-79
2022/08/03 02:20:15;;;;;;;9.88;5.20;;;;;;;17.38;68.38;99156.70;1731327;82;21107;-81
2022/08/03 02:22:44;;;;;;;7.87;4.55;;;;;;;17.43;68.30;99165.22;1737180;80;21012;-80
2022/08/03 02:25:13;;;;;;;9.43;4.45;;;;;;;17.40;68.08;99164.05;1745852;82;21024;-80
2022/08/03 02:27:56;;;;;;;8.83;3.95;;;;;;;17.40;68.21;99166.67;1742979;82;21039;-81
2022/08/03 02:30:30;;;;;;;8.28;4.33;;;;;;;17.36;69.24;99165.14;1762074;81;21036;-80
2022/08/03 02:32:58;;;;;;;9.03;3.77;;;;;;;17.34;68.42;99165.21;1753479;81;21054;-82
2022/08/03 02:35:28;;;;;;;7.92;4.08;;;;;;;17.29;69.15;99162.83;1760930;81;21015;-80
2022/08/03 02:38:02;;;;;;;11.73;3.95;;;;;;;17.27;68.57;99161.22;1752639;82;21018;-81
2022/08/03 02:40:30;;;;;;;10.60;4.28;;;;;;;17.26;69.33;99158.19;1743212;81;20979;-81
2022/08/03 02:43:04;;;;;;;6.25;4.08;;;;;;;17.24;69.50;99158.27;1767598;81;20967;-81
2022/08/03 02:45:38;;;;;;;12.25;4.20;;;;;;;17.26;70.22;99160.81;1748868;81;21539;-80
2022/08/03 02:48:08;;;;;;;6.70;4.05;;;;;;;17.25;68.93;99161.30;1748160;81;21003;-79
2022/08/03 02:50:36;;;;;;;6.87;3.87;;;;;;;17.21;68.30;99162.82;1764852;81;20987;-80
2022/08/03 02:53:04;;;;;;;13.25;4.12;;;;;;;17.16;68.92;99163.06;1749055;81;20999;-80
2022/08/03 02:55:34;;;;;;;11.63;3.72;;;;;;;17.14;69.22;99165.39;1769031;81;21039;-81
2022/08/03 02:58:03;;;;;;;5.47;3.40;;;;;;;17.09;69.53;99163.85;1769019;81;21026;-81
2022/08/03 03:00:33;;;;;;;6.72;3.42;;;;;;;16.98;68.24;99161.38;1759417;81;20968;-80
2022/08/03 03:03:01;;;;;;;7.37;3.77;;;;;;;16.93;71.00;99162.06;1746835;81;21424;-80
2022/08/03 03:05:29;;;;;;;12.15;4.05;;;;;;;16.90;71.19;99168.33;1760580;81;21320;-80
2022/08/03 03:07:56;;;;;;;8.10;3.30;;;;;;;16.88;71.02;99167.55;1788488;80;21452;-81
2022/08/03 03:10:24;;;;;;;7.22;3.83;;;;;;;16.80;70.01;99170.52;1760144;80;21511;-81
2022/08/03 03:12:55;;;;;;;8.10;3.17;;;;;;;16.79;71.76;99163.59;1768416;81;21003;-80
2022/08/03 03:15:23;;;;;;;6.58;3.25;;;;;;;16.77;72.27;99170.69;1771448;80;21017;-80
2022/08/03 03:17:51;;;;;;;6.83;3.70;;;;;;;16.74;70.47;99168.20;1767261;80;21020;-81
2022/08/03 03:20:18;;;;;;;5.90;3.22;;;;;;;16.73;70.94;99168.27;1777125;80;21000;-81
2022/08/03 03:22:48;;;;;;;5.60;3.60;;;;;;;16.75;70.87;99171.66;1770368;80;21258;-81
2022/08/03 03:25:15;;;;;;;8.63;3.10;;;;;;;16.78;72.14;99171.06;1770220;80;21600;-80
2022/08/03 03:27:42;;;;;;;5.80;3.33;;;;;;;16.83;71.93;99174.36;1780526;80;21214;-81
2022/08/03 03:30:10;;;;;;;7.62;3.00;;;;;;;16.87;71.84;99178.52;1783189;80;21020;-80
2022/08/03 03:32:38;;;;;;;5.58;3.77;;;;;;;16.94;72.53;99182.16;1756273;80;21016;-81
2022/08/03 03:35:07;;;;;;;9.28;3.75;;;;;;;16.99;71.87;99181.45;1760969;80;20952;-80
2022/08/03 03:37:33;;;;;;;13.00;3.72;;;;;;;17.02;72.01;99183.46;1779728;80;21012;-82
2022/08/03 03:40:00;;;;;;;7.35;3.67;;;;;;;17.04;72.13;99184.23;1783598;80;21038;-80
2022/08/03 03:42:27;;;;;;;8.88;3.60;;;;;;;17.05;71.87;99188.58;1774497;80;20967;-81
2022/08/03 03:44:53;;;;;;;7.62;4.20;;;;;;;17.08;72.51;99187.56;1767331;80;20957;-81
2022/08/03 03:47:20;;;;;;;10.80;3.77;;;;;;;17.08;72.02;99191.03;1774517;80;21784;-80
2022/08/03 03:49:47;;;;;;;6.47;3.85;;;;;;;17.10;72.43;99197.05;1775619;80;21027;-80
2022/08/03 03:52:15;;;;;;;10.72;4.00;;;;;;;17.11;71.26;99191.36;1774333;80;20984;-80
2022/08/03 03:54:44;;;;;;;10.53;3.67;;;;;;;17.10;72.08;99188.33;1765299;80;21000;-80
2022/08/03 03:57:11;;;;;;;9.83;3.90;;;;;;;17.08;71.21;99186.25;1773590;80;21018;-80
2022/08/03 03:59:41;;;;;;;6.22;3.87;;;;;;;17.03;71.72;99197.44;1780573;80;21524;-81
2022/08/03 04:02:10;;;;;;;12.03;4.05;;;;;;;17.02;72.54;99203.16;1763304;80;20987;-80
2022/08/03 04:13:08;;;;;;;;;;;;;;;17.08;72.33;99204.16;1776441;80;21470;-80
2022/08/03 04:15:38;;;;;;;12.25;3.95;;;;;;;17.08;70.72;99215.14;1771455;80;20138;-80
2022/08/03 04:18:10;;;;;;;5.83;3.37;;;;;;;17.05;71.23;99213.52;1764763;80;22263;-79
2022/08/03 04:20:40;;;;;;;8.78;3.98;;;;;;;17.11;71.88;99220.25;1779206;80;21023;-79
2022/08/03 04:23:07;;;;;;;8.63;3.87;;;;;;;17.17;70.31;99213.38;1738213;82;22090;-80
2022/08/03 04:25:36;;;;;;;7.70;3.98;;;;;;;17.22;71.01;99220.55;1754772;80;21005;-80
2022/08/03 04:28:05;;;;;;;7.45;3.83;;;;;;;17.32;70.91;99222.25;1731318;82;21100;-81
2022/08/03 04:30:35;;;;;;;10.08;4.50;;;;;;;17.39;71.12;99230.66;1744375;82;21027;-80
2022/08/03 04:33:02;;;;;;;7.53;3.60;;;;;;;17.50;71.55;99227.03;1716460;83;21488;-80
2022/08/03 04:35:32;;;;;;;11.60;3.62;;;;;;;17.61;71.35;99229.96;1709795;83;21024;-81
2022/08/03 04:38:04;;;;;;;10.25;3.72;;;;;;;17.72;71.15;99232.02;1731431;82;21334;-80
2022/08/03 04:40:34;;;;;;;9.43;3.67;;;;;;;17.81;70.96;99235.49;1708985;82;21150;-81
2022/08/03 04:43:02;;;;;;;8.90;3.45;;;;;;;17.92;70.31;99227.05;1730057;83;21081;-80
2022/08/03 04:45:30;;;;;;;6.70;4.05;;;;;;;17.98;69.95;99231.98;1724023;83;21011;-81
2022/08/03 04:47:58;;;;;;;6.85;3.85;;;;;;;18.03;69.93;99225.19;1726949;83;21075;-79
2022/08/03 04:50:26;;;;;;;7.80;4.30;;;;;;;18.12;69.38;99230.41;1731240;83;20999;-80
2022/08/03 04:53:06;;;;;;;7.50;4.03;;;;;;;18.20;69.57;99229.05;1734678;83;21023;-80
2022/08/03 04:55:34;;;;;;;9.08;3.67;;;;;;;18.24;68.57;99235.00;1728181;83;21062;-81
2022/08/03 04:58:03;;;;;;;7.55;3.85;;;;;;;18.26;68.23;99229.19;1726973;83;21583;-81
2022/08/03 05:00:30;;;;;;;9.83;3.75;;;;;;;18.25;67.89;99228.81;1730332;83;21014;-80
2022/08/03 05:02:57;;;;;;;10.10;4.10;;;;;;;18.24;67.90;99236.31;1712906;82;21079;-80
2022/08/03 05:05:24;;;;;;;8.18;3.37;;;;;;;18.28;68.07;99229.95;1730895;83;20972;-80
2022/08/03 05:07:50;;;;;;;4.95;3.20;;;;;;;18.39;68.22;99232.02;1713639;83;21055;-81
2022/08/03 05:10:17;;;;;;;8.30;4.40;;;;;;;18.47;67.82;99228.01;1733557;82;21003;-80
2022/08/03 05:12:47;;;;;;;7.05;4.12;;;;;;;18.58;67.86;99237.96;1731208;83;21550;-80
2022/08/03 05:15:14;;;;;;;5.90;3.67;;;;;;;18.68;67.60;99234.31;1712104;83;20964;-81
2022/08/03 05:17:41;;;;;;;9.63;3.83;;;;;;;18.75;67.45;99233.05;1734715;83;21062;-81
2022/08/03 05:20:09;;;;;;;6.78;3.75;;;;;;;18.82;67.11;99233.13;1711312;83;21468;-80
2022/08/03 05:22:36;;;;;;;5.87;3.70;;;;;;;18.91;66.76;99241.44;1725400;83;21609;-81
2022/08/03 05:25:03;;;;;;;6.42;3.87;;;;;;;18.99;66.70;99235.25;1730640;83;21019;-81
2022/08/03 05:27:30;;;;;;;9.53;4.25;;;;;;;19.05;66.51;99237.06;1719573;81;22487;-81
2022/08/03 05:29:56;;;;;;;12.10;4.30;;;;;;;19.13;66.56;99237.09;1739973;81;20983;-80
2022/08/03 05:32:23;;;;;;;7.42;4.00;;;;;;;19.22;66.21;99239.20;1748720;81;21527;-80
2022/08/03 05:34:50;;;;;;;8.03;3.98;;;;;;;19.29;65.59;99240.52;1760337;81;20980;-81
2022/08/03 05:37:16;;;;;;;14.13;5.70;;;;;;;19.37;65.64;99244.88;1757733;81;22103;-81
2022/08/03 05:39:43;;;;;;;7.97;5.08;;;;;;;19.45;65.18;99245.74;1755498;81;21007;-82
2022/08/03 05:42:09;;;;;;;7.05;4.75;;;;;;;19.52;64.99;99248.41;1755874;81;21015;-82
2022/08/03 05:44:37;;;;;;;10.95;4.97;;;;;;;19.59;64.92;99249.72;1752550;81;21491;-81
2022/08/03 05:47:05;;;;;;;7.45;5.00;;;;;;;19.66;64.82;99255.02;1741484;81;20999;-81
2022/08/03 05:49:31;;;;;;;9.88;4.62;;;;;;;19.72;64.53;99259.59;1739803;81;20983;-81
2022/08/03 05:51:58;;;;;;;8.15;4.65;;;;;;;19.81;64.27;99250.62;1749140;81;21558;-80
2022/08/03 05:54:25;;;;;;;8.55;4.47;;;;;;;19.91;64.18;99250.91;1744664;81;20992;-79
2022/08/03 05:56:52;;;;;;;9.95;4.62;;;;;;;20.02;64.08;99249.80;1739665;82;21005;-81
2022/08/03 05:59:18;;;;;;;8.23;4.80;;;;;;;20.12;63.79;99247.92;1735643;82;22097;-79
2022/08/03 06:01:45;;;;;;;7.80;4.85;;;;;;;20.22;63.36;99247.72;1735930;82;21013;-79
2022/08/03 06:04:12;;;;;;;10.50;5.62;;;;;;;20.32;63.13;99246.67;1743094;80;20997;-85
2022/08/03 06:06:38;;;;;;;13.15;6.17;;;;;;;20.40;62.79;99249.67;1741162;82;21251;-80
2022/08/03 06:09:05;;;;;;;10.98;5.70;;;;;;;20.49;62.40;99249.55;1733909;82;21480;-77
2022/08/03 06:11:32;;;;;;;12.28;5.20;;;;;;;20.56;61.87;99256.15;1766899;80;20984;-80
2022/08/03 06:13:58;;;;;;;9.03;5.60;;;;;;;20.65;61.81;99248.52;1762855;80;20984;-79
2022/08/03 06:16:25;;;;;;;8.93;5.12;;;;;;;20.72;61.53;99245.48;1758860;80;21084;-80
2022/08/03 06:18:52;;;;;;;9.80;5.25;;;;;;;20.81;61.48;99243.55;1734419;82;21063;-79
2022/08/03 06:21:18;;;;;;;7.87;5.20;;;;;;;20.91;61.34;99253.05;1733655;82;21422;-81
2022/08/03 06:23:46;;;;;;;8.10;5.17;;;;;;;21.00;60.98;99248.48;1764236;80;20960;-83
2022/08/03 06:26:13;;;;;;;8.28;4.90;;;;;;;21.10;60.58;99249.57;1762977;79;21106;-82
2022/08/03 06:28:40;;;;;;;9.98;5.58;;;;;;;21.21;60.31;99242.27;1739127;80;21004;-82
2022/08/03 06:31:06;;;;;;;10.85;5.53;;;;;;;21.32;59.29;99242.86;1726202;82;21079;-81
2022/08/03 06:33:33;;;;;;;7.45;4.72;;;;;;;21.40;59.65;99248.48;1728734;82;21578;-81
2022/08/03 06:36:00;;;;;;;14.50;5.30;;;;;;;21.45;59.16;99243.28;1736252;82;21079;-80
2022/08/03 06:38:28;;;;;;;12.05;4.47;;;;;;;21.55;59.21;99250.12;1728488;81;21513;-81
2022/08/03 06:40:54;;;;;;;8.88;4.40;;;;;;;21.62;59.14;99240.80;1736197;81;22488;-80
2022/08/03 06:43:21;;;;;;;6.35;4.12;;;;;;;21.73;58.57;99245.38;1745847;81;21052;-81
2022/08/03 06:45:47;;;;;;;8.30;3.92;;;;;;;21.86;58.13;99246.67;1745132;81;21031;-81
2022/08/03 06:48:14;;;;;;;7.10;3.98;;;;;;;21.92;57.73;99243.60;1744881;81;21037;-81
2022/08/03 06:50:43;;;;;;;6.70;3.92;;;;;;;22.00;57.42;99242.62;1744013;81;21550;-81
2022/08/03 06:53:10;;;;;;;11.83;4.10;;;;;;;22.10;57.22;99239.30;1738554;81;21032;-85
2022/08/03 06:55:37;;;;;;;7.20;3.05;;;;;;;22.21;57.05;99242.05;1736022;80;21010;-80
2022/08/03 06:58:03;;;;;;;4.45;3.00;;;;;;;22.30;56.12;99240.09;1732622;81;21536;-80
2022/08/03 07:00:30;;;;;;;6.47;3.25;;;;;;;22.38;56.13;99240.41;1740026;80;21050;-81
2022/08/03 07:02:57;;;;;;;6.83;3.37;;;;;;;22.50;56.12;99242.66;1734197;82;21150;-80
2022/08/03 07:05:24;;;;;;;11.38;3.72;;;;;;;22.61;55.79;99236.57;1733888;82;21103;-82
2022/08/03 07:07:56;;;;;;;5.40;3.33;;;;;;;22.71;55.81;99238.91;1733545;82;21552;-81
2022/08/03 07:10:23;;;;;;;7.40;3.80;;;;;;;22.82;55.63;99237.66;1756181;80;21021;-80
2022/08/03 07:12:50;;;;;;;7.05;4.05;;;;;;;22.92;55.53;99243.58;1759765;80;21012;-81
2022/08/03 07:15:17;;;;;;;6.17;3.72;;;;;;;23.05;55.46;99232.47;1745437;82;21008;-82
2022/08/03 07:17:43;;;;;;;6.17;4.15;;;;;;;23.20;55.00;99234.47;1731304;82;20997;-80
2022/08/03 07:20:12;;;;;;;8.13;3.58;;;;;;;23.29;54.99;99228.95;1718699;82;21049;-80
2022/08/03 07:22:38;;;;;;;5.15;3.55;;;;;;;23.38;54.38;99233.56;1759651;80;21005;-79
2022/08/03 07:25:06;;;;;;;5.28;3.62;;;;;;;23.48;54.38;99235.04;1763377;80;21007;-82
2022/08/03 07:27:33;;;;;;;5.80;3.45;;;;;;;23.58;54.06;99232.04;1738974;82;21015;-80
2022/08/03 07:30:00;;;;;;;6.90;3.25;;;;;;;23.69;53.74;99233.36;1732300;82;21033;-81
2022/08/03 07:32:30;;;;;;;6.37;3.30;;;;;;;23.77;53.29;99230.13;1742988;82;20983;-81
2022/08/03 07:34:56;;;;;;;5.33;3.27;;;;;;;23.85;53.11;99225.09;1735333;82;21460;-81
2022/08/03 07:37:23;;;;;;;5.97;3.90;;;;;;;23.95;53.13;99224.72;1729228;82;21083;-81
2022/08/03 07:39:50;;;;;;;9.00;3.15;;;;;;;24.07;52.89;99222.91;1731310;82;20971;-80
2022/08/03 07:42:16;;;;;;;7.95;3.52;;;;;;;24.20;52.79;99219.66;1735666;82;21058;-81
2022/08/03 07:44:43;;;;;;;4.60;3.10;;;;;;;24.32;52.41;99220.98;1738367;82;20993;-81
2022/08/03 07:47:09;;;;;;;5.00;3.42;;;;;;;24.42;51.91;99221.92;1736473;82;21570;-80
2022/08/03 07:49:42;;;;;;;5.58;3.12;;;;;;;24.49;51.47;99211.63;1734461;82;20996;-81
2022/08/03 07:54:53;;;;;;;4.67;2.75;;;;;;;24.69;50.63;99210.91;1764943;80;20115;-81
2022/08/03 07:57:20;;;;;;;6.87;3.25;;;;;;;24.86;51.17;99210.00;1724098;82;21008;-81
2022/08/03 07:59:47;;;;;;;7.33;3.37;;;;;;;24.99;50.84;99210.68;1755325;81;21115;-81
2022/08/03 08:02:13;;;;;;;4.15;2.75;;;;;;;25.10;49.23;99214.59;1745448;81;21019;-82
2022/08/03 08:04:40;;;;;;;6.00;2.98;;;;;;;25.20;50.26;99212.84;1751730;81;21025;-80
2022/08/03 08:07:08;;;;;;;4.70;2.77;;;;;;;25.28;49.61;99212.73;1754796;80;21085;-80
2022/08/03 08:09:35;;;;;;;3.98;2.60;;;;;;;25.33;49.31;99214.04;1732334;82;21041;-82
2022/08/03 08:12:01;;;;;;;4.28;2.47;;;;;;;25.40;48.55;99215.19;1735384;82;20989;-81
2022/08/03 08:14:28;;;;;;;4.15;2.60;;;;;;;25.41;48.14;99214.72;1740121;82;21498;-80
2022/08/03 08:16:55;;;;;;;4.37;2.98;;;;;;;25.47;47.84;99218.19;1751904;80;21074;-81
2022/08/03 08:19:22;;;;;;;5.00;2.50;;;;;;;25.54;48.03;99211.34;1747334;80;21075;-81
2022/08/03 08:21:48;;;;;;;4.67;2.58;;;;;;;25.62;46.90;99214.69;1737988;82;21059;-80
2022/08/03 08:24:15;;;;;;;4.70;2.45;;;;;;;25.72;47.52;99206.76;1748201;80;21083;-80
2022/08/03 08:26:42;;;;;;;3.62;2.40;;;;;;;25.79;46.77;99214.59;1731018;82;21118;-80
2022/08/03 08:29:08;;;;;;;4.10;2.40;;;;;;;25.86;44.19;99213.55;1736945;82;21549;-83
2022/08/03 08:31:35;;;;;;;3.70;2.35;;;;;;;25.91;45.39;99216.21;1735972;82;21027;-82
2022/08/03 08:34:06;;;;;;;3.77;2.47;;;;;;;26.03;45.09;99220.12;1733893;82;21014;-81
2022/08/03 08:36:33;;;;;;;4.80;2.30;;;;;;;26.07;44.25;99208.22;1733037;82;21130;-80
2022/08/03 08:39:00;;;;;;;4.60;2.30;;;;;;;26.17;44.36;99213.09;1728623;82;21091;-81
2022/08/03 08:41:28;;;;;;;4.92;2.22;;;;;;;26.28;45.05;99210.33;1728942;81;20973;-81
2022/08/03 08:43:55;;;;;;;4.67;2.50;;;;;;;26.39;44.71;99207.53;1762903;80;20960;-82
2022/08/03 08:46:22;;;;;;;3.92;2.70;;;;;;;26.45;44.38;99196.81;1734464;82;22119;-82
2022/08/03 08:48:51;;;;;;;4.55;2.35;;;;;;;26.54;44.48;99201.80;1763837;80;21051;-80
2022/08/03 08:51:20;;;;;;;4.47;2.40;;;;;;;26.65;43.81;99204.38;1756427;80;21020;-82
2022/08/03 08:53:51;;;;;;;3.62;2.22;;;;;;;26.71;43.50;99206.48;1758566;80;20950;-82
2022/08/03 08:56:24;;;;;;;3.92;2.22;;;;;;;26.78;43.57;99201.46;1733111;82;21095;-82
2022/08/03 08:58:52;;;;;;;;;;;;;;;26.87;43.86;99198.44;1760810;80;21039;-81
2022/08/03 09:01:20;;;;;;;3.47;2.42;;;;;;;27.02;43.53;99201.51;1757929;79;20125;-82
2022/08/03 09:03:47;;;;;;;11.28;2.72;;;;;;;27.13;43.64;99196.03;1745008;81;21015;-81
2022/08/03 09:06:14;;;;;;;3.72;2.25;;;;;;;27.28;43.52;99200.49;1745241;81;21032;-80
2022/08/03 09:08:40;;;;;;;5.17;2.70;;;;;;;27.41;43.38;99194.33;1741790;81;21019;-80
2022/08/03 09:11:07;;;;;;;6.28;2.50;;;;;;;27.52;42.18;99195.52;1742016;81;21090;-82
2022/08/03 09:13:35;;;;;;;7.15;2.60;;;;;;;27.62;42.39;99192.81;1740822;81;21063;-80
2022/08/03 09:16:18;;;;;;;9.58;2.40;;;;;;;27.68;42.39;99186.89;1741502;81;21040;-84
2022/08/03 09:18:49;;;;;;;3.92;2.22;;;;;;;27.76;42.65;99183.49;1734577;80;21601;-83
2022/08/03 09:21:27;;;;;;;7.92;2.40;;;;;;;27.91;42.37;99180.73;1732549;82;21008;-84
2022/08/03 09:23:57;;;;;;;3.58;2.42;;;;;;;27.93;41.65;99178.75;1731885;82;20992;-82
2022/08/03 09:26:28;;;;;;;3.70;2.30;;;;;;;27.89;41.60;99179.17;1736971;82;20984;-80
2022/08/03 09:28:59;;;;;;;3.72;2.27;;;;;;;27.94;41.00;99172.91;1734149;82;21123;-81
2022/08/03 09:31:42;;;;;;;4.25;2.00;;;;;;;28.00;41.04;99170.98;1715485;83;21034;-80
2022/08/03 09:34:12;;;;;;;4.58;2.00;;;;;;;28.13;38.32;99176.82;1718515;82;21009;-81
2022/08/03 09:36:44;;;;;;;3.17;1.90;;;;;;;28.19;39.53;99175.36;1712735;83;21074;-80
2022/08/03 09:39:14;;;;;;;3.75;2.00;;;;;;;28.31;39.15;99166.17;1719827;82;21085;-81
2022/08/03 09:41:45;;;;;;;3.67;2.20;;;;;;;28.38;39.23;99169.57;1722514;82;21100;-80
2022/08/03 09:44:13;;;;;;;3.70;2.10;;;;;;;28.47;36.95;99168.64;1714949;82;21048;-81
2022/08/03 09:46:56;;;;;;;3.62;2.10;;;;;;;28.49;38.39;99162.17;1717065;83;21553;-82
2022/08/03 09:49:23;;;;;;;;;;;;;;;28.54;38.40;99162.58;1720576;82;21018;-81
2022/08/03 09:51:49;;;;;;;6.00;2.35;;;;;;;28.64;38.36;99160.33;1719440;82;20148;-81
2022/08/03 09:54:30;;;;;;;3.20;2.10;;;;;;;28.79;38.30;99160.63;1725185;82;21044;-80
2022/08/03 09:56:58;;;;;;;3.65;2.10;;;;;;;28.92;38.06;99150.38;1722079;82;20980;-81
2022/08/03 09:59:32;;;;;;;4.12;2.08;;;;;;;29.00;37.94;99152.28;1731073;82;21270;-81
2022/08/03 10:01:59;;;;;;;4.12;2.00;;;;;;;29.04;37.86;99154.48;1727678;82;20952;-80
2022/08/03 10:04:27;;;;;;;3.30;1.90;;;;;;;29.08;37.39;99154.52;1703875;82;21038;-82
2022/08/03 10:07:09;;;;;;;3.65;2.08;;;;;;;29.22;36.75;99152.30;1730102;82;20982;-82
2022/08/03 10:09:37;;;;;;;3.42;2.10;;;;;;;29.26;35.36;99151.00;1724134;82;21044;-83
2022/08/03 10:12:09;;;;;;;5.92;2.10;;;;;;;29.16;35.33;99151.09;1729682;82;21000;-80
2022/08/03 10:14:39;;;;;;;3.35;2.20;;;;;;;29.24;35.69;99156.50;1726650;82;21566;-81
2022/08/03 10:17:05;;;;;;;5.75;2.45;;;;;;;29.32;35.80;99151.70;1736284;82;21051;-81
2022/08/03 10:19:32;;;;;;;3.95;2.30;;;;;;;29.42;35.87;99152.94;1737917;82;21542;-81
2022/08/03 10:22:21;;;;;;;4.15;2.10;;;;;;;29.48;35.35;99150.45;1730801;82;21058;-84
2022/08/03 10:24:59;;;;;;;4.55;2.20;;;;;;;29.61;35.61;99143.85;1726469;82;21036;-81
2022/08/03 10:27:47;;;;;;;3.45;2.22;;;;;;;29.58;34.40;99155.70;1735578;82;20992;-80
2022/08/03 10:30:14;;;;;;;4.00;2.08;;;;;;;29.43;34.96;99142.08;1726511;82;21059;-80
2022/08/03 10:32:45;;;;;;;4.60;2.30;;;;;;;29.45;35.27;99144.09;1711036;82;21028;-82
2022/08/03 10:35:19;;;;;;;3.80;2.62;;;;;;;29.53;35.61;99134.77;1721202;82;21032;-81
2022/08/03 10:38:03;;;;;;;5.70;3.60;;;;;;;29.70;35.42;99134.84;1722405;82;21041;-82
2022/08/03 10:40:34;;;;;;;4.05;2.35;;;;;;;29.87;35.51;99128.59;1687474;82;21063;-81
2022/08/03 10:43:14;;;;;;;7.15;2.35;;;;;;;30.03;35.10;99129.14;1740785;81;21025;-80
2022/08/03 10:45:43;;;;;;;3.72;2.35;;;;;;;30.16;34.87;99131.86;1745211;82;20986;-81
2022/08/03 10:48:10;;;;;;;4.65;2.12;;;;;;;30.35;35.04;99129.44;1748846;80;21632;-79
2022/08/03 10:50:38;;;;;;;3.92;2.30;;;;;;;30.48;34.59;99124.41;1738621;82;21045;-81
2022/08/03 10:53:06;;;;;;;6.95;2.20;;;;;;;30.61;33.96;99128.78;1739387;81;21049;-81
2022/08/03 10:58:50;;;;;;;4.10;2.05;;;;;;;30.86;34.14;99118.08;1741471;81;21041;-80
2022/08/03 11:01:21;;;;;;;2.47;1.60;;;;;;;31.08;33.81;99121.44;1742541;81;20994;-81
2022/08/03 11:03:59;;;;;;;4.72;2.22;;;;;;;31.27;32.66;99120.73;1735423;82;21026;-80
2022/08/03 11:06:26;;;;;;;3.10;1.85;;;;;;;31.39;32.99;99118.00;1739870;81;21021;-80
2022/08/03 11:09:15;;;;;;;4.15;2.08;;;;;;;31.62;31.25;99110.09;1748208;81;21012;-80
2022/08/03 11:11:46;;;;;;;4.92;2.02;;;;;;;31.65;31.55;99102.17;1740469;82;21025;-80
2022/08/03 11:14:20;;;;;;;6.67;2.77;;;;;;;31.86;31.44;99115.86;1741133;82;21006;-81
2022/08/03 11:16:52;;;;;;;3.80;2.27;;;;;;;31.90;30.53;99113.16;1743555;81;21002;-80
2022/08/03 11:19:26;;;;;;;5.50;2.40;;;;;;;31.97;30.90;99107.90;1736820;81;21112;-82
2022/08/03 11:21:55;;;;;;;3.87;2.02;;;;;;;32.13;30.58;99090.87;1739292;81;21034;-79
2022/08/03 11:24:46;;;;;;;5.35;2.00;;;;;;;32.39;28.86;99091.04;1742699;81;21109;-79
2022/08/03 11:27:22;;;;;;;7.53;2.77;;;;;;;32.56;29.42;99093.14;1742604;81;21122;-81
2022/08/03 11:30:13;;;;;;;4.80;2.37;;;;;;;32.79;29.58;99081.85;1733614;81;21034;-82
2022/08/03 11:32:46;;;;;;;2.65;1.75;;;;;;;32.98;28.52;99084.52;1733624;81;21026;-82
2022/08/03 11:35:22;;;;;;;2.45;1.70;;;;;;;33.01;27.79;99081.47;1736744;81;21025;-80
2022/08/03 11:38:01;;;;;;;3.42;1.92;;;;;;;33.09;27.92;99076.55;1730739;81;21069;-82
2022/08/03 11:40:50;;;;;;;2.65;1.92;;;;;;;33.21;27.50;99082.31;1733006;81;21001;-82
2022/08/03 11:43:36;;;;;;;5.12;1.87;;;;;;;33.21;27.14;99080.97;1738889;81;21015;-82
2022/08/03 11:46:16;;;;;;;4.20;1.98;;;;;;;33.37;27.31;99067.83;1735719;81;20963;-83
2022/08/03 11:48:45;;;;;;;3.75;1.90;;;;;;;33.35;26.95;99068.00;1735649;81;20975;-79
2022/08/03 11:51:33;;;;;;;2.58;1.60;;;;;;;33.36;25.59;99068.31;1726895;81;20993;-81
2022/08/03 11:54:04;;;;;;;2.77;1.60;;;;;;;33.44;25.84;99064.17;1741462;81;21019;-80
2022/08/03 11:56:49;;;;;;;2.87;1.70;;;;;;;33.60;26.31;99058.27;1731388;82;20959;-82
2022/08/03 11:59:17;;;;;;;3.02;1.75;;;;;;;33.62;25.80;99062.47;1731334;82;21570;-81
2022/08/03 12:01:44;;;;;;;3.75;1.87;;;;;;;33.38;25.46;99058.19;1732298;81;20991;-80